createdAt,value
2018-08-13T00:00:00.117Z,69.00
2018-08-13T00:03:04.813Z,68.90
2018-08-13T00:06:09.253Z,69.00
2018-08-13T00:09:18.146Z,69.00
2018-08-13T00:12:22.556Z,68.70
2018-08-13T00:15:26.474Z,68.90
2018-08-13T00:18:30.930Z,69.00
2018-08-13T00:21:34.891Z,69.40
2018-08-13T00:24:39.101Z,69.10
2018-08-13T00:27:43.413Z,69.10
2018-08-13T00:30:47.565Z,69.20
2018-08-13T00:33:52.050Z,69.40
2018-08-13T00:36:56.337Z,69.20
2018-08-13T00:40:00.552Z,69.30
2018-08-13T00:43:05.333Z,69.60
2018-08-13T00:46:09.877Z,69.60
2018-08-13T00:49:14.265Z,69.70
2018-08-13T00:52:18.536Z,69.60
2018-08-13T00:55:22.638Z,69.90
2018-08-13T00:58:27.793Z,69.70
2018-08-13T01:01:32.056Z,69.80
2018-08-13T01:04:36.025Z,69.80
2018-08-13T01:07:39.971Z,70.00
2018-08-13T01:10:44.289Z,69.80
2018-08-13T01:13:48.359Z,70.30
2018-08-13T01:16:52.749Z,70.20
2018-08-13T01:19:56.947Z,70.00
2018-08-13T01:23:01.267Z,70.20
2018-08-13T01:26:05.813Z,70.20
2018-08-13T01:29:10.137Z,70.20
2018-08-13T01:32:14.461Z,70.30
2018-08-13T01:35:24.854Z,69.80
2018-08-13T01:38:29.216Z,69.80
2018-08-13T01:41:33.574Z,70.00
2018-08-13T01:44:37.848Z,69.80
2018-08-13T01:47:42.743Z,69.30
2018-08-13T01:50:47.032Z,69.20
2018-08-13T01:53:51.710Z,69.10
2018-08-13T01:56:55.859Z,69.40
2018-08-13T02:00:00.143Z,69.50
2018-08-13T02:03:04.611Z,69.60
2018-08-13T02:06:09.374Z,69.40
2018-08-13T02:09:13.857Z,69.40
2018-08-13T02:12:18.411Z,69.80
2018-08-13T02:15:23.102Z,69.90
2018-08-13T02:18:27.412Z,70.00
2018-08-13T02:21:31.622Z,70.00
2018-08-13T02:24:35.977Z,70.20
2018-08-13T02:27:40.214Z,70.20
2018-08-13T02:30:44.542Z,70.30
2018-08-13T02:33:49.060Z,70.50
2018-08-13T02:36:53.615Z,70.30
2018-08-13T02:39:57.867Z,70.50
2018-08-13T02:43:02.070Z,70.10
2018-08-13T02:46:06.897Z,70.10
2018-08-13T02:49:11.306Z,70.00
2018-08-13T02:52:15.615Z,70.10
2018-08-13T02:55:20.120Z,70.10
2018-08-13T02:58:24.686Z,70.10
2018-08-13T03:01:29.525Z,70.30
2018-08-13T03:04:33.949Z,70.60
2018-08-13T03:07:38.338Z,70.60
2018-08-13T03:10:42.708Z,70.70
2018-08-13T03:13:47.054Z,70.80
2018-08-13T03:16:51.231Z,71.00
2018-08-13T03:19:55.723Z,70.90
2018-08-13T03:23:00.077Z,70.70
2018-08-13T03:26:04.479Z,70.80
2018-08-13T03:29:08.758Z,71.10
2018-08-13T03:32:13.142Z,71.10
2018-08-13T03:35:17.509Z,71.00
2018-08-13T03:38:21.830Z,71.00
2018-08-13T03:41:26.174Z,71.10
2018-08-13T03:44:30.437Z,71.00
2018-08-13T03:47:34.832Z,71.00
2018-08-13T03:52:22.450Z,71.20
2018-08-13T03:55:26.964Z,71.20
2018-08-13T03:58:31.268Z,71.30
2018-08-13T04:01:35.623Z,71.70
2018-08-13T04:04:40.062Z,71.70
2018-08-13T04:07:44.424Z,72.00
2018-08-13T04:10:48.763Z,72.20
2018-08-13T04:13:53.275Z,72.30
2018-08-13T04:17:00.962Z,72.20
2018-08-13T04:20:07.228Z,72.20
2018-08-13T04:23:17.969Z,72.10
2018-08-13T04:26:22.180Z,72.20
2018-08-13T04:29:26.841Z,72.20
2018-08-13T04:32:31.111Z,72.20
2018-08-13T04:35:35.561Z,72.00
2018-08-13T04:38:40.231Z,71.80
2018-08-13T04:41:44.494Z,71.60
2018-08-13T04:44:48.893Z,71.30
2018-08-13T04:47:54.342Z,71.30
2018-08-13T04:50:58.814Z,71.20
2018-08-13T04:54:03.203Z,71.20
2018-08-13T04:57:07.643Z,71.10
2018-08-13T05:00:11.973Z,70.70
2018-08-13T05:03:16.288Z,70.20
2018-08-13T05:06:20.652Z,69.80
2018-08-13T05:09:25.016Z,69.50
2018-08-13T05:12:29.341Z,69.10
2018-08-13T05:15:33.762Z,68.60
2018-08-13T05:18:38.226Z,68.00
2018-08-13T05:21:42.531Z,67.40
2018-08-13T05:24:46.740Z,66.80
2018-08-13T05:27:51.060Z,66.30
2018-08-13T05:30:55.418Z,65.10
2018-08-13T05:33:59.727Z,64.60
2018-08-13T05:37:04.110Z,64.70
2018-08-13T05:40:09.948Z,64.00
2018-08-13T05:43:14.326Z,63.20
2018-08-13T05:46:18.675Z,61.70
2018-08-13T05:49:23.047Z,60.30
2018-08-13T05:52:27.445Z,59.00
2018-08-13T05:55:31.805Z,57.50
2018-08-13T05:58:36.227Z,56.40
2018-08-13T06:01:40.669Z,55.00
2018-08-13T06:04:44.991Z,53.90
2018-08-13T06:07:49.269Z,52.80
2018-08-13T06:10:53.727Z,51.90
2018-08-13T06:13:58.185Z,50.80
2018-08-13T06:17:02.660Z,49.70
2018-08-13T06:20:08.299Z,48.20
2018-08-13T06:23:12.676Z,46.60
2018-08-13T06:26:16.922Z,44.70
2018-08-13T06:29:21.362Z,43.60
2018-08-13T06:32:25.769Z,43.10
2018-08-13T06:35:29.879Z,41.40
2018-08-13T06:38:34.388Z,39.70
2018-08-13T06:41:38.682Z,38.20
2018-08-13T06:44:42.915Z,37.90
2018-08-13T06:47:47.249Z,37.00
2018-08-13T06:50:51.485Z,36.40
2018-08-13T06:53:55.659Z,35.00
2018-08-13T06:57:00.085Z,33.30
2018-08-13T07:00:06.314Z,32.90
2018-08-13T07:03:10.702Z,32.00
2018-08-13T07:06:15.149Z,30.70
2018-08-13T07:09:19.516Z,29.60
2018-08-13T07:12:23.925Z,28.70
2018-08-13T07:15:28.197Z,28.50
2018-08-13T07:18:32.664Z,27.80
2018-08-13T07:21:37.175Z,27.20
2018-08-13T07:24:41.282Z,26.30
2018-08-13T07:27:45.600Z,25.50
2018-08-13T07:30:49.909Z,24.70
2018-08-13T07:33:54.231Z,24.00
2018-08-13T07:36:58.575Z,24.10
2018-08-13T07:40:03.079Z,23.30
2018-08-13T07:43:07.406Z,22.70
2018-08-13T07:46:12.118Z,22.20
2018-08-13T07:49:16.497Z,21.90
2018-08-13T07:52:20.849Z,21.90
2018-08-13T07:55:25.163Z,21.30
2018-08-13T07:58:29.473Z,21.20
2018-08-13T08:01:33.786Z,21.50
2018-08-13T08:04:38.198Z,20.70
2018-08-13T08:07:42.585Z,19.60
2018-08-13T08:10:46.883Z,18.60
2018-08-13T08:13:51.447Z,18.60
2018-08-13T08:16:55.737Z,17.80
2018-08-13T08:20:00.147Z,17.40
2018-08-13T08:23:04.642Z,16.80
2018-08-13T08:26:08.853Z,16.20
2018-08-13T08:29:13.218Z,15.60
2018-08-13T08:32:17.418Z,15.70
2018-08-13T08:35:21.790Z,14.80
2018-08-13T08:38:26.182Z,14.70
2018-08-13T08:41:30.503Z,14.40
2018-08-13T08:44:34.554Z,14.20
2018-08-13T08:47:38.846Z,14.20
2018-08-13T08:50:43.198Z,14.60
2018-08-13T08:53:47.539Z,15.30
2018-08-13T08:56:51.825Z,16.00
2018-08-13T08:59:56.231Z,16.60
2018-08-13T09:03:00.485Z,17.30
2018-08-13T09:06:04.918Z,17.80
2018-08-13T09:09:11.712Z,18.70
2018-08-13T09:12:16.012Z,19.70
2018-08-13T09:15:20.360Z,20.80
2018-08-13T09:18:35.447Z,22.00
2018-08-13T09:21:39.827Z,23.20
2018-08-13T09:24:54.775Z,24.20
2018-08-13T09:28:10.178Z,25.50
2018-08-13T09:31:26.239Z,26.20
2018-08-13T09:34:41.021Z,28.30
2018-08-13T09:37:45.586Z,29.10
2018-08-13T09:40:49.855Z,29.40
2018-08-13T09:43:53.732Z,30.10
2018-08-13T09:46:57.912Z,30.90
2018-08-13T09:50:01.915Z,32.30
2018-08-13T09:53:05.965Z,32.70
2018-08-13T09:56:10.036Z,33.00
2018-08-13T09:59:13.895Z,33.60
2018-08-13T10:02:18.211Z,33.90
2018-08-13T10:05:22.622Z,34.70
2018-08-13T10:08:27.906Z,34.90
2018-08-13T10:11:32.222Z,34.50
2018-08-13T10:14:36.504Z,34.20
2018-08-13T10:17:40.959Z,34.20
2018-08-13T10:20:44.968Z,34.70
2018-08-13T10:23:48.895Z,34.70
2018-08-13T10:26:53.078Z,34.90
2018-08-13T10:29:57.086Z,35.30
2018-08-13T10:33:01.864Z,35.30
2018-08-13T10:36:06.434Z,35.30
2018-08-13T10:39:10.580Z,35.80
2018-08-13T10:42:15.000Z,36.70
2018-08-13T10:45:19.201Z,37.60
2018-08-13T10:48:23.146Z,37.70
2018-08-13T10:51:27.440Z,38.40
2018-08-13T10:54:31.368Z,38.10
2018-08-13T10:57:35.682Z,38.20
2018-08-13T11:00:40.141Z,37.80
2018-08-13T11:03:44.581Z,37.50
2018-08-13T11:06:49.078Z,38.00
2018-08-13T11:09:53.317Z,37.80
2018-08-13T11:12:57.650Z,38.00
2018-08-13T11:16:01.625Z,38.50
2018-08-13T11:19:06.205Z,38.40
2018-08-13T11:22:10.125Z,38.10
2018-08-13T11:25:15.496Z,37.80
2018-08-13T11:28:19.775Z,38.90
2018-08-13T11:31:24.145Z,39.20
2018-08-13T11:34:28.623Z,38.70
2018-08-13T11:37:32.998Z,37.40
2018-08-13T11:40:37.486Z,37.60
2018-08-13T11:43:41.638Z,37.70
2018-08-13T11:46:46.154Z,37.70
2018-08-13T11:49:50.567Z,37.90
2018-08-13T11:52:54.987Z,37.70
2018-08-13T11:55:59.496Z,37.80
2018-08-13T11:59:03.757Z,37.10
2018-08-13T12:02:08.097Z,37.10
2018-08-13T12:05:13.738Z,36.70
2018-08-13T12:08:18.294Z,37.50
2018-08-13T12:11:23.186Z,37.40
2018-08-13T12:14:27.762Z,37.50
2018-08-13T12:17:32.198Z,37.60
2018-08-13T12:20:36.417Z,37.90
2018-08-13T12:23:40.741Z,37.70
2018-08-13T12:26:45.148Z,37.50
2018-08-13T12:29:49.397Z,37.10
2018-08-13T12:32:54.579Z,37.00
2018-08-13T12:35:58.854Z,35.80
2018-08-13T12:39:03.381Z,34.90
2018-08-13T12:42:08.425Z,35.40
2018-08-13T12:45:14.585Z,36.10
2018-08-13T12:48:18.981Z,35.60
2018-08-13T12:51:23.286Z,35.30
2018-08-13T12:54:27.769Z,34.90
2018-08-13T12:57:32.079Z,34.90
2018-08-13T13:00:36.486Z,34.90
2018-08-13T13:03:41.543Z,35.10
2018-08-13T13:06:46.035Z,34.20
2018-08-13T13:09:50.277Z,34.10
2018-08-13T13:12:54.568Z,33.60
2018-08-13T13:15:59.475Z,33.50
2018-08-13T13:19:03.897Z,35.10
2018-08-13T13:22:08.225Z,34.90
2018-08-13T13:25:12.425Z,34.80
2018-08-13T13:28:16.827Z,35.00
2018-08-13T13:31:21.576Z,35.30
2018-08-13T13:34:25.770Z,35.90
2018-08-13T13:37:30.092Z,36.00
2018-08-13T13:40:34.440Z,34.80
2018-08-13T13:43:38.683Z,35.40
2018-08-13T13:46:43.072Z,35.10
2018-08-13T13:49:48.394Z,36.00
2018-08-13T13:52:52.757Z,35.50
2018-08-13T13:55:57.269Z,36.40
2018-08-13T13:59:01.714Z,37.60
2018-08-13T14:02:06.009Z,37.70
2018-08-13T14:05:10.292Z,38.30
2018-08-13T14:08:14.701Z,38.30
2018-08-13T14:11:19.150Z,38.20
2018-08-13T14:14:23.532Z,37.60
2018-08-13T14:17:28.018Z,37.80
2018-08-13T14:20:32.221Z,38.80
2018-08-13T14:23:36.520Z,38.20
2018-08-13T14:26:41.166Z,38.70
2018-08-13T14:29:45.621Z,38.50
2018-08-13T14:32:50.291Z,38.30
2018-08-13T14:35:54.566Z,38.10
2018-08-13T14:38:58.826Z,38.10
2018-08-13T14:42:03.024Z,39.00
2018-08-13T14:45:08.786Z,39.40
2018-08-13T14:48:13.227Z,39.60
2018-08-13T14:51:17.378Z,39.30
2018-08-13T14:54:21.752Z,39.40
2018-08-13T14:57:26.293Z,40.00
2018-08-13T15:00:32.454Z,40.20
2018-08-13T15:03:36.761Z,40.10
2018-08-13T15:06:41.125Z,39.60
2018-08-13T15:09:45.842Z,39.90
2018-08-13T15:12:50.231Z,40.40
2018-08-13T15:15:54.675Z,40.30
2018-08-13T15:18:59.031Z,40.10
2018-08-13T15:22:03.759Z,39.80
2018-08-13T15:25:07.976Z,39.30
2018-08-13T15:28:12.567Z,39.10
2018-08-13T15:31:16.891Z,39.20
2018-08-13T15:34:21.210Z,39.00
2018-08-13T15:37:25.515Z,38.50
2018-08-13T15:40:30.204Z,39.20
2018-08-13T15:43:34.700Z,38.90
2018-08-13T15:46:39.168Z,39.00
2018-08-13T15:49:43.564Z,38.50
2018-08-13T15:52:48.819Z,38.80
2018-08-13T15:55:53.270Z,38.60
2018-08-13T15:58:58.458Z,38.90
2018-08-13T16:02:02.817Z,38.60
2018-08-13T16:05:08.505Z,38.90
2018-08-13T16:08:12.972Z,39.20
2018-08-13T16:11:17.437Z,40.20
2018-08-13T16:14:21.981Z,40.20
2018-08-13T16:17:26.484Z,40.60
2018-08-13T16:20:31.003Z,41.50
2018-08-13T16:23:35.187Z,41.00
2018-08-13T16:26:39.592Z,40.50
2018-08-13T16:29:44.538Z,40.80
2018-08-13T16:32:49.456Z,41.60
2018-08-13T16:35:53.678Z,41.60
2018-08-13T16:38:58.395Z,42.80
2018-08-13T16:42:02.693Z,43.00
2018-08-13T16:45:07.382Z,42.80
2018-08-13T16:48:11.766Z,43.50
2018-08-13T16:51:16.104Z,43.40
2018-08-13T16:54:20.403Z,43.80
2018-08-13T16:57:24.946Z,44.00
2018-08-13T17:00:30.725Z,44.20
2018-08-13T17:03:34.952Z,44.40
2018-08-13T17:06:39.319Z,44.60
2018-08-13T17:09:43.598Z,45.30
2018-08-13T17:12:48.331Z,45.60
2018-08-13T17:15:52.829Z,46.40
2018-08-13T17:18:57.297Z,45.50
2018-08-13T17:22:01.563Z,45.50
2018-08-13T17:25:08.270Z,45.60
2018-08-13T17:28:12.852Z,46.10
